createdAt,value
2023-01-29T00:00:12.354Z,0.18
2023-01-29T00:03:03.085Z,0.16
2023-01-29T00:05:31.131Z,0.12
2023-01-29T00:07:58.980Z,0.09
2023-01-29T00:10:26.937Z,0.07
2023-01-29T00:12:55.199Z,0.08
2023-01-29T00:15:23.530Z,0.10
2023-01-29T00:17:51.371Z,0.12
2023-01-29T00:20:19.462Z,0.12
2023-01-29T00:22:47.522Z,0.14
2023-01-29T00:25:15.465Z,0.14
2023-01-29T00:27:44.743Z,0.13
2023-01-29T00:30:13.230Z,0.13
2023-01-29T00:32:41.261Z,0.11
2023-01-29T00:35:09.766Z,0.11
2023-01-29T00:37:38.113Z,0.13
2023-01-29T00:40:06.393Z,0.12
2023-01-29T00:42:52.854Z,0.12
2023-01-29T00:45:20.719Z,0.14
2023-01-29T00:47:48.604Z,0.16
2023-01-29T00:50:16.830Z,0.16
2023-01-29T00:52:44.869Z,0.17
2023-01-29T00:55:12.917Z,0.14
2023-01-29T00:57:40.938Z,0.13
2023-01-29T01:00:12.717Z,0.10
2023-01-29T01:02:59.268Z,0.07
2023-01-29T01:05:28.315Z,0.03
2023-01-29T01:07:58.142Z,0.00
2023-01-29T01:10:32.225Z,-0.03
2023-01-29T01:13:01.934Z,-0.06
2023-01-29T01:15:36.933Z,-0.07
2023-01-29T01:18:05.372Z,-0.07
2023-01-29T01:20:35.812Z,-0.05
2023-01-29T01:23:03.963Z,-0.01
2023-01-29T01:25:32.059Z,0.01
2023-01-29T01:28:03.160Z,0.01
2023-01-29T01:30:31.052Z,-0.01
2023-01-29T01:32:59.805Z,-0.03
2023-01-29T01:35:27.868Z,-0.05
2023-01-29T01:37:55.708Z,-0.06
2023-01-29T01:40:25.859Z,-0.07
2023-01-29T01:42:56.936Z,-0.10
2023-01-29T01:45:36.094Z,-0.14
2023-01-29T01:48:11.374Z,-0.15
2023-01-29T01:50:49.573Z,-0.15
2023-01-29T01:53:28.756Z,-0.15
2023-01-29T01:56:03.823Z,-0.12
2023-01-29T01:58:40.830Z,-0.10
2023-01-29T02:01:09.865Z,-0.06
2023-01-29T02:04:09.184Z,-0.04
2023-01-29T02:06:59.560Z,-0.02
2023-01-29T02:09:37.854Z,-0.01
2023-01-29T02:12:09.004Z,-0.01
2023-01-29T02:14:41.687Z,-0.03
2023-01-29T02:17:19.463Z,-0.06
2023-01-29T02:20:00.460Z,-0.09
2023-01-29T02:23:05.846Z,-0.12
2023-01-29T02:26:03.282Z,-0.20
2023-01-29T02:28:49.030Z,-0.22
2023-01-29T02:31:29.202Z,-0.24
2023-01-29T02:34:18.482Z,-0.25
2023-01-29T02:36:48.999Z,-0.23
2023-01-29T02:39:56.072Z,-0.21
2023-01-29T02:42:35.858Z,-0.17
2023-01-29T02:45:11.533Z,-0.16
2023-01-29T02:48:00.610Z,-0.14
2023-01-29T02:50:42.728Z,-0.12
2023-01-29T02:53:24.185Z,-0.11
2023-01-29T02:56:00.104Z,-0.11
2023-01-29T02:58:41.455Z,-0.11
2023-01-29T03:01:26.600Z,-0.12
2023-01-29T03:03:58.972Z,-0.12
2023-01-29T03:06:40.736Z,-0.14
2023-01-29T03:09:22.721Z,-0.14
2023-01-29T03:11:58.837Z,-0.14
2023-01-29T03:14:59.490Z,-0.16
2023-01-29T03:17:33.853Z,-0.16
2023-01-29T03:20:07.471Z,-0.14
2023-01-29T03:22:36.276Z,-0.12
2023-01-29T03:25:24.069Z,-0.11
2023-01-29T03:28:17.680Z,-0.11
2023-01-29T03:31:18.989Z,-0.10
2023-01-29T03:34:05.261Z,-0.09
2023-01-29T03:36:45.265Z,-0.08
2023-01-29T03:39:16.215Z,-0.09
2023-01-29T03:41:56.729Z,-0.11
2023-01-29T03:44:34.125Z,-0.14
2023-01-29T03:47:08.171Z,-0.16
2023-01-29T03:49:56.516Z,-0.17
2023-01-29T03:52:46.702Z,-0.21
2023-01-29T03:55:21.019Z,-0.19
2023-01-29T03:58:04.943Z,-0.19
2023-01-29T04:00:45.123Z,-0.20
2023-01-29T04:03:19.364Z,-0.25
2023-01-29T04:06:09.577Z,-0.28
2023-01-29T04:08:51.154Z,-0.32
2023-01-29T04:11:22.263Z,-0.36
2023-01-29T04:13:51.376Z,-0.38
2023-01-29T04:16:26.744Z,-0.38
2023-01-29T04:19:16.377Z,-0.38
2023-01-29T04:21:47.496Z,-0.39
2023-01-29T04:24:17.018Z,-0.38
2023-01-29T04:26:44.778Z,-0.37
2023-01-29T04:29:31.955Z,-0.37
2023-01-29T04:32:11.075Z,-0.40
2023-01-29T04:34:48.280Z,-0.42
2023-01-29T04:37:26.402Z,-0.38
2023-01-29T04:40:03.512Z,-0.35
2023-01-29T04:42:59.031Z,-0.34
2023-01-29T04:45:35.900Z,-0.32
2023-01-29T04:48:22.172Z,-0.32
2023-01-29T04:51:06.479Z,-0.36
2023-01-29T04:54:06.511Z,-0.38
2023-01-29T04:56:37.377Z,-0.38
2023-01-29T04:59:08.949Z,-0.43
2023-01-29T05:01:38.852Z,-0.46
2023-01-29T05:04:12.033Z,-0.49
2023-01-29T05:06:41.492Z,-0.52
2023-01-29T05:09:10.101Z,-0.53
2023-01-29T05:11:37.918Z,-0.55
2023-01-29T05:14:09.939Z,-0.55
2023-01-29T05:16:45.126Z,-0.56
2023-01-29T05:19:16.027Z,-0.54
2023-01-29T05:21:46.918Z,-0.52
2023-01-29T05:24:23.288Z,-0.51
2023-01-29T05:27:12.133Z,-0.51
2023-01-29T05:29:47.485Z,-0.52
2023-01-29T05:32:16.021Z,-0.59
2023-01-29T05:34:43.894Z,-0.68
2023-01-29T05:37:11.756Z,-0.75
2023-01-29T05:39:39.568Z,-0.83
2023-01-29T05:42:07.541Z,-0.90
2023-01-29T05:44:35.326Z,-0.99
2023-01-29T05:47:03.153Z,-1.07
2023-01-29T05:49:31.017Z,-1.16
2023-01-29T05:51:58.855Z,-1.27
2023-01-29T05:54:26.681Z,-1.33
2023-01-29T05:56:54.475Z,-1.37
2023-01-29T05:59:22.421Z,-1.40
2023-01-29T06:01:50.222Z,-1.40
2023-01-29T06:04:18.141Z,-1.43
2023-01-29T06:06:45.983Z,-1.49
2023-01-29T06:09:13.903Z,-1.56
2023-01-29T06:11:41.796Z,-1.59
2023-01-29T06:14:09.651Z,-1.64
2023-01-29T06:16:37.477Z,-1.73
2023-01-29T06:19:05.353Z,-1.78
2023-01-29T06:21:33.181Z,-1.82
2023-01-29T06:24:01.035Z,-1.86
2023-01-29T06:26:28.879Z,-1.89
2023-01-29T06:28:56.703Z,-1.92
2023-01-29T06:31:37.871Z,-1.94
2023-01-29T06:34:08.420Z,-1.95
2023-01-29T06:36:36.369Z,-1.96
2023-01-29T06:39:04.708Z,-1.98
2023-01-29T06:41:32.627Z,-2.01
2023-01-29T06:44:00.555Z,-2.04
2023-01-29T06:46:28.697Z,-2.04
2023-01-29T06:48:59.459Z,-2.04
2023-01-29T06:51:27.450Z,-2.06
2023-01-29T06:53:56.176Z,-2.07
2023-01-29T06:56:24.315Z,-2.09
2023-01-29T06:58:52.142Z,-2.05
2023-01-29T07:01:34.746Z,-1.99
2023-01-29T07:04:03.744Z,-1.92
2023-01-29T07:06:31.902Z,-1.85
2023-01-29T07:09:00.001Z,-1.80
2023-01-29T07:11:27.778Z,-1.71
2023-01-29T07:13:55.599Z,-1.60
2023-01-29T07:16:24.225Z,-1.49
2023-01-29T07:18:52.225Z,-1.40
2023-01-29T07:21:20.078Z,-1.31
2023-01-29T07:23:47.899Z,-1.20
2023-01-29T07:26:15.726Z,-1.12
2023-01-29T07:28:43.599Z,-1.04
2023-01-29T07:31:13.630Z,-0.97
2023-01-29T07:33:44.253Z,-0.90
2023-01-29T07:36:13.190Z,-0.86
2023-01-29T07:38:41.245Z,-0.81
2023-01-29T07:41:11.259Z,-0.75
2023-01-29T07:43:39.318Z,-0.69
2023-01-29T07:46:07.617Z,-0.63
2023-01-29T07:48:35.926Z,-0.54
2023-01-29T07:51:03.853Z,-0.44
2023-01-29T07:53:31.895Z,-0.33
2023-01-29T07:55:59.729Z,-0.22
2023-01-29T07:58:27.587Z,-0.12
2023-01-29T08:00:55.422Z,0.16
2023-01-29T08:03:23.243Z,0.95
2023-01-29T08:05:51.136Z,1.57
2023-01-29T08:08:19.407Z,1.70
2023-01-29T08:10:47.369Z,1.60
2023-01-29T08:13:15.257Z,1.50
2023-01-29T08:15:45.646Z,1.40
2023-01-29T08:18:14.373Z,1.32
2023-01-29T08:20:42.195Z,1.27
2023-01-29T08:23:15.640Z,1.20
2023-01-29T08:25:43.921Z,1.17
2023-01-29T08:28:12.433Z,1.16
2023-01-29T08:30:40.522Z,1.12
2023-01-29T08:33:08.453Z,1.07
2023-01-29T08:35:36.679Z,1.07
2023-01-29T08:38:05.413Z,1.10
2023-01-29T08:40:35.345Z,1.16
2023-01-29T08:43:06.995Z,1.24
2023-01-29T08:45:39.843Z,1.32
2023-01-29T08:48:08.340Z,1.37
2023-01-29T08:50:37.472Z,1.41
2023-01-29T08:53:07.971Z,1.48
2023-01-29T08:55:37.784Z,1.56
2023-01-29T08:58:07.840Z,1.68
2023-01-29T09:00:35.735Z,1.79
2023-01-29T09:03:03.835Z,1.85
2023-01-29T09:05:31.704Z,1.92
2023-01-29T09:07:59.719Z,1.99
2023-01-29T09:10:27.651Z,2.05
2023-01-29T09:12:55.538Z,2.07
2023-01-29T09:15:23.684Z,2.11
2023-01-29T09:17:52.004Z,2.15
2023-01-29T09:20:20.320Z,2.25
2023-01-29T09:22:49.407Z,2.34
2023-01-29T09:25:17.663Z,2.45
2023-01-29T09:27:45.668Z,2.56
2023-01-29T09:30:14.080Z,2.67
2023-01-29T09:32:57.269Z,2.76
2023-01-29T09:35:25.130Z,2.84
2023-01-29T09:37:53.066Z,2.92
2023-01-29T09:40:37.533Z,2.95
2023-01-29T09:43:15.839Z,3.00
2023-01-29T09:45:54.483Z,3.06
2023-01-29T09:48:27.249Z,3.14
2023-01-29T09:50:58.615Z,3.21
2023-01-29T09:53:53.391Z,3.26
2023-01-29T09:56:22.395Z,3.36
2023-01-29T09:58:50.308Z,3.41
2023-01-29T10:01:27.905Z,3.45
2023-01-29T10:04:22.190Z,3.50
2023-01-29T10:07:05.731Z,3.55
2023-01-29T10:09:58.929Z,3.58
2023-01-29T10:12:54.813Z,3.66
2023-01-29T10:15:28.724Z,3.76
2023-01-29T10:18:03.387Z,3.87
2023-01-29T10:20:53.497Z,3.93
2023-01-29T10:23:30.219Z,3.97
2023-01-29T10:25:58.417Z,4.03
2023-01-29T10:28:42.648Z,4.08
2023-01-29T10:31:22.300Z,4.12
2023-01-29T10:34:07.380Z,4.13
2023-01-29T10:36:45.351Z,4.15
2023-01-29T10:39:18.761Z,4.18
2023-01-29T10:42:20.565Z,4.22
2023-01-29T10:45:03.329Z,4.30
2023-01-29T10:48:04.262Z,4.38
2023-01-29T10:50:57.663Z,4.42
2023-01-29T10:54:00.888Z,4.45
2023-01-29T10:56:31.647Z,4.52
2023-01-29T10:59:05.460Z,4.59
2023-01-29T11:01:33.406Z,4.62
2023-01-29T11:04:03.719Z,4.59
2023-01-29T11:06:34.515Z,4.52
2023-01-29T11:09:10.835Z,4.49
2023-01-29T11:11:50.501Z,4.47
2023-01-29T11:14:24.549Z,4.47
2023-01-29T11:16:52.862Z,4.49
2023-01-29T11:19:36.739Z,4.52
2023-01-29T11:22:04.663Z,4.54
2023-01-29T11:24:32.540Z,4.51
2023-01-29T11:27:00.373Z,4.48
2023-01-29T11:29:39.130Z,4.48
2023-01-29T11:32:34.924Z,4.45
2023-01-29T11:35:21.656Z,4.40
2023-01-29T11:37:49.591Z,4.35
2023-01-29T11:40:23.412Z,4.26
2023-01-29T11:42:54.199Z,4.16
2023-01-29T11:45:25.190Z,4.11
2023-01-29T11:47:55.596Z,4.11
2023-01-29T12:03:55.847Z,4.09
2023-01-29T12:06:32.006Z,3.96
2023-01-29T12:09:02.450Z,3.97
2023-01-29T12:11:32.952Z,4.00
2023-01-29T12:14:03.149Z,4.00
2023-01-29T12:16:33.687Z,4.02
2023-01-29T12:19:19.629Z,4.03
2023-01-29T12:21:53.829Z,4.05
2023-01-29T12:24:43.716Z,4.07
2023-01-29T12:27:25.395Z,4.05
2023-01-29T12:30:15.487Z,4.06
2023-01-29T12:32:56.624Z,4.12
2023-01-29T12:35:29.690Z,4.16
2023-01-29T12:38:03.404Z,4.17
2023-01-29T12:40:45.316Z,4.21
2023-01-29T12:43:26.347Z,4.25
2023-01-29T12:45:57.973Z,4.28
2023-01-29T12:48:33.578Z,4.29
2023-01-29T12:51:09.243Z,4.23
2023-01-29T12:53:47.720Z,4.25
2023-01-29T12:56:32.051Z,4.29
2023-01-29T12:59:13.060Z,4.32
2023-01-29T13:01:52.617Z,4.31
2023-01-29T13:04:41.355Z,4.30
2023-01-29T13:07:16.647Z,4.31
2023-01-29T13:09:50.848Z,4.26
2023-01-29T13:12:21.254Z,4.22
2023-01-29T13:14:56.477Z,4.13
2023-01-29T13:17:39.442Z,4.04
2023-01-29T13:20:20.994Z,3.90
2023-01-29T13:22:52.530Z,3.74
2023-01-29T13:25:21.305Z,3.61
2023-01-29T13:27:49.856Z,3.53
2023-01-29T13:30:34.170Z,3.50
2023-01-29T13:33:11.443Z,3.49
2023-01-29T13:35:42.961Z,3.49
2023-01-29T13:38:33.342Z,3.52
2023-01-29T13:41:04.788Z,3.59
2023-01-29T13:43:37.455Z,3.62
2023-01-29T13:46:11.911Z,3.62
2023-01-29T13:48:46.838Z,3.62
2023-01-29T13:51:21.909Z,3.64
2023-01-29T13:53:59.821Z,3.64
2023-01-29T13:56:33.570Z,3.64
2023-01-29T13:59:02.880Z,3.63
2023-01-29T14:01:49.142Z,3.60
2023-01-29T14:04:21.599Z,3.55
2023-01-29T14:06:54.694Z,3.53
2023-01-29T14:09:34.418Z,3.48
2023-01-29T14:12:02.981Z,3.44
2023-01-29T14:14:49.516Z,3.38
2023-01-29T14:17:20.014Z,3.34
2023-01-29T14:19:53.815Z,3.30
2023-01-29T14:22:24.998Z,3.29
2023-01-29T14:25:02.529Z,3.28
2023-01-29T14:27:32.240Z,3.29
2023-01-29T14:30:10.030Z,3.27
2023-01-29T14:32:40.752Z,3.24
2023-01-29T14:35:23.600Z,3.19
2023-01-29T14:37:56.492Z,3.16
2023-01-29T14:40:28.129Z,3.15
2023-01-29T14:43:07.949Z,3.12
2023-01-29T14:45:38.937Z,3.09
2023-01-29T14:48:10.148Z,3.05
2023-01-29T14:50:42.551Z,3.01
2023-01-29T14:53:13.403Z,2.97
2023-01-29T14:55:54.733Z,2.96
2023-01-29T14:58:31.137Z,2.96
2023-01-29T15:01:01.756Z,2.95
2023-01-29T15:03:39.272Z,2.94
2023-01-29T15:06:10.407Z,2.93
2023-01-29T15:08:45.466Z,2.93
2023-01-29T15:11:38.610Z,2.91
2023-01-29T15:14:19.131Z,2.86
2023-01-29T15:17:17.210Z,2.81
2023-01-29T15:19:50.889Z,2.76
2023-01-29T15:22:26.003Z,2.72
2023-01-29T15:25:16.025Z,2.68
2023-01-29T15:27:45.071Z,2.64
2023-01-29T15:30:23.085Z,2.60
2023-01-29T15:32:51.268Z,2.56
2023-01-29T15:35:39.829Z,2.56
2023-01-29T15:38:21.489Z,2.57
2023-01-29T15:40:56.949Z,2.56
2023-01-29T15:43:30.500Z,2.55
2023-01-29T15:46:01.947Z,2.54
2023-01-29T15:48:42.355Z,2.54
2023-01-29T15:51:19.996Z,2.49
2023-01-29T15:54:05.812Z,2.45
2023-01-29T15:56:44.715Z,2.43
2023-01-29T15:59:19.602Z,2.39
2023-01-29T16:01:47.671Z,2.36
2023-01-29T16:04:25.718Z,2.33
2023-01-29T16:06:55.922Z,2.28
2023-01-29T16:09:26.242Z,2.26
2023-01-29T16:11:57.621Z,2.25
2023-01-29T16:14:26.782Z,2.22
2023-01-29T16:16:54.790Z,2.21
2023-01-29T16:19:26.415Z,2.23
2023-01-29T16:22:01.910Z,2.25
2023-01-29T16:24:32.463Z,2.26
2023-01-29T16:27:06.545Z,2.28
2023-01-29T16:29:35.668Z,2.26
2023-01-29T16:32:05.183Z,2.24
2023-01-29T16:34:38.552Z,2.23
2023-01-29T16:37:17.670Z,2.19
2023-01-29T16:39:48.428Z,2.18
2023-01-29T16:42:22.334Z,2.17
2023-01-29T16:45:00.514Z,2.17
2023-01-29T16:47:32.141Z,2.16
2023-01-29T16:50:02.292Z,2.14
2023-01-29T16:52:33.861Z,2.11
2023-01-29T16:55:19.832Z,2.09
2023-01-29T16:57:53.669Z,2.12
2023-01-29T17:00:28.824Z,2.12
2023-01-29T17:03:04.397Z,2.10
2023-01-29T17:05:35.662Z,2.10
2023-01-29T17:08:04.787Z,2.11
2023-01-29T17:10:33.754Z,2.11
2023-01-29T17:13:18.399Z,2.09
2023-01-29T17:15:47.000Z,2.06
2023-01-29T17:18:23.855Z,2.04
2023-01-29T17:20:55.057Z,2.02
2023-01-29T17:23:23.577Z,2.03
2023-01-29T17:25:51.850Z,2.05
2023-01-29T17:28:19.736Z,2.06
2023-01-29T17:31:00.220Z,2.07
2023-01-29T17:33:33.998Z,2.12
2023-01-29T17:36:02.020Z,2.14
2023-01-29T17:38:30.076Z,2.10
2023-01-29T17:41:03.704Z,2.06
2023-01-29T17:43:31.508Z,2.04
2023-01-29T17:45:59.548Z,2.01
2023-01-29T17:48:29.306Z,1.97
2023-01-29T17:51:00.615Z,1.91
2023-01-29T17:53:44.203Z,1.86
2023-01-29T17:56:18.094Z,1.80
2023-01-29T17:58:46.111Z,1.75
2023-01-29T18:01:14.083Z,1.73
2023-01-29T18:03:42.098Z,1.74
2023-01-29T18:06:12.653Z,1.77
2023-01-29T18:08:40.703Z,1.75
2023-01-29T18:11:11.342Z,1.70
2023-01-29T18:13:41.909Z,1.67
2023-01-29T18:16:09.963Z,1.64
2023-01-29T18:18:37.893Z,1.59
2023-01-29T18:21:06.363Z,1.53
2023-01-29T18:23:34.353Z,1.49
2023-01-29T18:26:02.234Z,1.44
2023-01-29T18:28:31.191Z,1.40
2023-01-29T18:31:02.923Z,1.40
2023-01-29T18:33:31.453Z,1.40
2023-01-29T18:35:59.313Z,1.41
2023-01-29T18:38:27.612Z,1.42
2023-01-29T18:41:03.249Z,1.42
2023-01-29T18:43:31.183Z,1.40
2023-01-29T18:45:59.929Z,1.37
2023-01-29T18:48:27.873Z,1.33
2023-01-29T18:50:55.843Z,1.30
2023-01-29T18:53:23.829Z,1.27
2023-01-29T18:56:04.375Z,1.24
2023-01-29T18:58:35.676Z,1.19
2023-01-29T19:01:11.861Z,1.17
2023-01-29T19:03:41.477Z,1.17
2023-01-29T19:06:11.242Z,1.15
2023-01-29T19:08:40.734Z,1.12
2023-01-29T19:11:09.083Z,1.10
2023-01-29T19:13:38.183Z,1.07
2023-01-29T19:16:09.056Z,1.08
2023-01-29T19:18:37.042Z,1.11
2023-01-29T19:21:10.619Z,1.12
2023-01-29T19:23:39.080Z,1.11
2023-01-29T19:26:07.063Z,1.09
2023-01-29T19:28:35.813Z,1.07
2023-01-29T19:31:03.938Z,1.06
2023-01-29T19:33:32.200Z,1.06
2023-01-29T19:36:00.215Z,1.05
2023-01-29T19:38:28.671Z,1.04
2023-01-29T19:40:59.027Z,1.04
2023-01-29T19:43:30.857Z,1.02
2023-01-29T19:46:01.012Z,1.01
2023-01-29T19:48:29.474Z,1.00
2023-01-29T19:50:59.530Z,1.02
2023-01-29T19:53:28.927Z,1.02
2023-01-29T19:56:03.881Z,1.01
2023-01-29T19:58:33.164Z,1.01
2023-01-29T20:01:07.384Z,1.02
2023-01-29T20:03:35.465Z,0.99
2023-01-29T20:06:05.331Z,0.95
2023-01-29T20:08:34.191Z,0.89
2023-01-29T20:11:02.979Z,0.80
2023-01-29T20:13:32.453Z,0.74
2023-01-29T20:16:05.333Z,0.67
2023-01-29T20:18:33.843Z,0.59
2023-01-29T20:21:07.015Z,0.50
2023-01-29T20:23:38.416Z,0.43
2023-01-29T20:26:14.111Z,0.40
2023-01-29T20:28:43.253Z,0.33
2023-01-29T20:31:11.295Z,0.24
2023-01-29T20:33:40.427Z,0.18
2023-01-29T20:36:11.051Z,0.13
2023-01-29T20:38:39.040Z,0.09
2023-01-29T20:41:09.642Z,0.03
2023-01-29T20:43:37.622Z,-0.03
2023-01-29T20:46:06.083Z,-0.08
2023-01-29T20:48:34.109Z,-0.14
2023-01-29T20:51:09.366Z,-0.20
2023-01-29T20:53:37.424Z,-0.26
2023-01-29T20:56:05.955Z,-0.28
2023-01-29T20:58:34.047Z,-0.29
2023-01-29T21:01:06.764Z,-0.31
2023-01-29T21:03:34.704Z,-0.31
2023-01-29T21:06:02.603Z,-0.32
2023-01-29T21:08:30.570Z,-0.31
2023-01-29T21:10:58.603Z,-0.29
2023-01-29T21:13:26.571Z,-0.27
2023-01-29T21:15:54.451Z,-0.27
2023-01-29T21:18:22.634Z,-0.28
2023-01-29T21:20:50.590Z,-0.31
2023-01-29T21:23:19.121Z,-0.34
2023-01-29T21:25:48.159Z,-0.37
2023-01-29T21:28:16.759Z,-0.41
2023-01-29T21:30:45.291Z,-0.45
2023-01-29T21:33:13.328Z,-0.46
2023-01-29T21:35:41.189Z,-0.48
2023-01-29T21:38:09.342Z,-0.51
2023-01-29T21:40:37.234Z,-0.53
2023-01-29T21:43:15.447Z,-0.56
2023-01-29T21:45:43.829Z,-0.56
2023-01-29T21:48:11.855Z,-0.55
2023-01-29T21:50:39.786Z,-0.54
2023-01-29T21:53:07.903Z,-0.53
2023-01-29T21:55:35.786Z,-0.51
2023-01-29T21:58:04.414Z,-0.51
2023-01-29T22:00:32.849Z,-0.54
2023-01-29T22:03:00.899Z,-0.57
2023-01-29T22:05:31.424Z,-0.61
2023-01-29T22:07:59.293Z,-0.64
2023-01-29T22:10:28.631Z,-0.68
2023-01-29T22:12:56.725Z,-0.73
2023-01-29T22:15:24.576Z,-0.75
2023-01-29T22:17:52.545Z,-0.76
2023-01-29T22:20:20.886Z,-0.76
2023-01-29T22:22:48.838Z,-0.75
2023-01-29T22:25:20.077Z,-0.74
2023-01-29T22:27:48.275Z,-0.75
2023-01-29T22:30:16.846Z,-0.75
2023-01-29T22:32:45.016Z,-0.76
2023-01-29T22:35:12.838Z,-0.78
2023-01-29T22:37:40.844Z,-0.80
2023-01-29T22:40:09.804Z,-0.83
2023-01-29T22:42:37.754Z,-0.86
2023-01-29T22:45:06.082Z,-0.90
2023-01-29T22:47:34.024Z,-0.93
2023-01-29T22:50:02.536Z,-0.96
2023-01-29T22:52:38.332Z,-0.97
2023-01-29T22:55:08.123Z,-0.97
2023-01-29T22:57:37.153Z,-0.95
2023-01-29T23:00:08.134Z,-0.94
2023-01-29T23:02:36.552Z,-0.94
2023-01-29T23:05:04.937Z,-0.93
2023-01-29T23:07:33.176Z,-0.89
2023-01-29T23:10:01.032Z,-0.88
2023-01-29T23:12:29.307Z,-0.89
2023-01-29T23:14:57.316Z,-0.90
2023-01-29T23:17:25.175Z,-0.92
2023-01-29T23:19:53.036Z,-0.94
2023-01-29T23:22:21.092Z,-0.97
2023-01-29T23:24:48.951Z,-1.00
2023-01-29T23:27:16.932Z,-1.04
2023-01-29T23:29:47.231Z,-1.07
2023-01-29T23:32:18.472Z,-1.11
2023-01-29T23:34:46.372Z,-1.15
2023-01-29T23:37:14.411Z,-1.16
2023-01-29T23:39:42.307Z,-1.14
2023-01-29T23:42:10.231Z,-1.13
2023-01-29T23:44:38.183Z,-1.13
2023-01-29T23:47:06.421Z,-1.14
2023-01-29T23:49:34.714Z,-1.15
2023-01-29T23:52:03.183Z,-1.16
2023-01-29T23:54:31.025Z,-1.16
2023-01-29T23:56:58.950Z,-1.15
2023-01-29T23:59:28.845Z,-1.14
